sensor_id;sensor_type;location;lat;lon;timestamp;pressure;altitude;pressure_sealevel;temperature;humidity
73105;BME280;61296;50.526;30.792;2023-09-12T00:01:53;99710.75;;;15.42;67.79
73105;BME280;61296;50.526;30.792;2023-09-12T00:17:13;99654.34;;;15.04;67.54
73105;BME280;61296;50.526;30.792;2023-09-12T00:32:32;99653.59;;;14.89;68.11
73105;BME280;61296;50.526;30.792;2023-09-12T00:47:52;99686.00;;;15.03;68.47
73105;BME280;61296;50.526;30.792;2023-09-12T01:03:12;99639.06;;;14.64;69.01
73105;BME280;61296;50.526;30.792;2023-09-12T01:18:31;99710.53;;;15.01;70.03
73105;BME280;61296;50.526;30.792;2023-09-12T01:33:55;99704.63;;;14.88;70.64
73105;BME280;61296;50.526;30.792;2023-09-12T01:49:17;99696.44;;;14.49;71.81
73105;BME280;61296;50.526;30.792;2023-09-12T02:04:38;99713.81;;;14.32;72.43
73105;BME280;61296;50.526;30.792;2023-09-12T02:19:57;99716.56;;;14.10;74.38
73105;BME280;61296;50.526;30.792;2023-09-12T02:35:16;99694.63;;;12.47;78.22
73105;BME280;61296;50.526;30.792;2023-09-12T02:50:35;99729.47;;;12.18;80.36
73105;BME280;61296;50.526;30.792;2023-09-12T03:06:01;99730.13;;;11.64;83.49
73105;BME280;61296;50.526;30.792;2023-09-12T03:21:23;99736.34;;;11.23;85.23
73105;BME280;61296;50.526;30.792;2023-09-12T03:36:42;99747.09;;;11.36;86.82
73105;BME280;61296;50.526;30.792;2023-09-12T03:52:01;99703.00;;;11.28;86.22
73105;BME280;61296;50.526;30.792;2023-09-12T04:07:21;99666.63;;;11.49;84.57
73105;BME280;61296;50.526;30.792;2023-09-12T04:22:42;99722.34;;;12.65;81.69
73105;BME280;61296;50.526;30.792;2023-09-12T04:38:01;99665.47;;;13.22;77.85
73105;BME280;61296;50.526;30.792;2023-09-12T04:53:22;99754.91;;;14.48;74.96
73105;BME280;61296;50.526;30.792;2023-09-12T05:08:41;99761.03;;;15.41;71.66
73105;BME280;61296;50.526;30.792;2023-09-12T05:24:00;99735.94;;;16.32;67.58
73105;BME280;61296;50.526;30.792;2023-09-12T05:39:19;99773.03;;;16.97;65.67
73105;BME280;61296;50.526;30.792;2023-09-12T05:54:39;99732.28;;;16.42;66.70
73105;BME280;61296;50.526;30.792;2023-09-12T06:09:59;99778.13;;;17.74;63.03
73105;BME280;61296;50.526;30.792;2023-09-12T06:25:19;99771.22;;;18.12;61.49
73105;BME280;61296;50.526;30.792;2023-09-12T06:40:38;99796.75;;;19.04;58.56
73105;BME280;61296;50.526;30.792;2023-09-12T06:55:56;99796.31;;;20.05;54.64
73105;BME280;61296;50.526;30.792;2023-09-12T07:11:18;99792.78;;;20.37;52.86
73105;BME280;61296;50.526;30.792;2023-09-12T07:26:38;99757.63;;;20.56;51.39
73105;BME280;61296;50.526;30.792;2023-09-12T07:41:57;99811.78;;;21.53;46.76
73105;BME280;61296;50.526;30.792;2023-09-12T07:57:16;99772.16;;;20.96;47.50
73105;BME280;61296;50.526;30.792;2023-09-12T08:12:36;99813.84;;;21.78;46.65
73105;BME280;61296;50.526;30.792;2023-09-12T08:27:57;99764.78;;;21.48;44.97
73105;BME280;61296;50.526;30.792;2023-09-12T08:43:18;99785.06;;;21.77;44.01
73105;BME280;61296;50.526;30.792;2023-09-12T08:58:37;99796.50;;;21.83;42.46
73105;BME280;61296;50.526;30.792;2023-09-12T09:13:56;99766.28;;;21.90;40.11
73105;BME280;61296;50.526;30.792;2023-09-12T09:29:19;99809.66;;;22.62;40.17
73105;BME280;61296;50.526;30.792;2023-09-12T09:44:39;99770.19;;;22.57;37.98
73105;BME280;61296;50.526;30.792;2023-09-12T09:59:58;99748.97;;;22.68;38.64
73105;BME280;61296;50.526;30.792;2023-09-12T10:15:20;99791.88;;;23.03;37.78
73105;BME280;61296;50.526;30.792;2023-09-12T10:30:39;99737.44;;;23.01;36.79
73105;BME280;61296;50.526;30.792;2023-09-12T10:46:00;99728.84;;;23.39;35.29
73105;BME280;61296;50.526;30.792;2023-09-12T11:01:22;99766.13;;;23.61;35.03
73105;BME280;61296;50.526;30.792;2023-09-12T11:16:43;99712.22;;;23.76;34.02
73105;BME280;61296;50.526;30.792;2023-09-12T11:32:03;99688.47;;;24.08;32.95
73105;BME280;61296;50.526;30.792;2023-09-12T11:47:23;99736.91;;;24.21;32.81
73105;BME280;61296;50.526;30.792;2023-09-12T12:02:43;99677.47;;;24.32;32.21
73105;BME280;61296;50.526;30.792;2023-09-12T12:18:02;99724.22;;;24.75;30.60
73105;BME280;61296;50.526;30.792;2023-09-12T12:33:22;99696.22;;;24.44;32.32
73105;BME280;61296;50.526;30.792;2023-09-12T12:48:43;99658.13;;;24.43;33.11
73105;BME280;61296;50.526;30.792;2023-09-12T13:04:09;99658.28;;;24.76;32.07
73105;BME280;61296;50.526;30.792;2023-09-12T13:19:29;99649.38;;;24.77;31.96
73105;BME280;61296;50.526;30.792;2023-09-12T13:34:48;99641.56;;;24.72;32.63
73105;BME280;61296;50.526;30.792;2023-09-12T13:50:09;99645.78;;;24.77;32.36
73105;BME280;61296;50.526;30.792;2023-09-12T14:05:28;99625.66;;;24.60;32.40
73105;BME280;61296;50.526;30.792;2023-09-12T14:20:47;99630.75;;;24.80;32.57
73105;BME280;61296;50.526;30.792;2023-09-12T14:36:08;99685.78;;;25.09;32.84
73105;BME280;61296;50.526;30.792;2023-09-12T14:51:28;99644.56;;;24.60;32.71
73105;BME280;61296;50.526;30.792;2023-09-12T15:06:47;99671.25;;;24.55;33.75
73105;BME280;61296;50.526;30.792;2023-09-12T15:22:06;99677.19;;;24.39;34.08
73105;BME280;61296;50.526;30.792;2023-09-12T15:37:25;99613.00;;;23.70;34.44
73105;BME280;61296;50.526;30.792;2023-09-12T15:52:44;99647.63;;;23.76;34.83
73105;BME280;61296;50.526;30.792;2023-09-12T16:08:03;99670.41;;;23.47;37.17
73105;BME280;61296;50.526;30.792;2023-09-12T16:23:23;99688.50;;;23.46;37.61
73105;BME280;61296;50.526;30.792;2023-09-12T16:38:43;99705.72;;;23.13;38.51
73105;BME280;61296;50.526;30.792;2023-09-12T16:54:02;99666.31;;;22.38;39.79
73105;BME280;61296;50.526;30.792;2023-09-12T17:09:21;99715.34;;;22.08;41.71
73105;BME280;61296;50.526;30.792;2023-09-12T17:24:40;99731.00;;;21.68;42.75
73105;BME280;61296;50.526;30.792;2023-09-12T17:40:00;99735.28;;;21.30;43.50
73105;BME280;61296;50.526;30.792;2023-09-12T17:55:19;99697.00;;;20.69;44.50
73105;BME280;61296;50.526;30.792;2023-09-12T18:10:41;99742.03;;;20.88;44.93
73105;BME280;61296;50.526;30.792;2023-09-12T18:26:00;99729.59;;;20.60;45.76
73105;BME280;61296;50.526;30.792;2023-09-12T18:41:19;99755.59;;;20.40;46.36
73105;BME280;61296;50.526;30.792;2023-09-12T18:56:38;99723.75;;;20.05;46.99
73105;BME280;61296;50.526;30.792;2023-09-12T19:11:57;99679.84;;;19.53;47.53
73105;BME280;61296;50.526;30.792;2023-09-12T19:27:16;99710.91;;;19.36;48.66
73105;BME280;61296;50.526;30.792;2023-09-12T19:42:35;99752.94;;;19.45;49.00
73105;BME280;61296;50.526;30.792;2023-09-12T19:57:54;99738.22;;;19.44;48.39
73105;BME280;61296;50.526;30.792;2023-09-12T20:13:13;99754.53;;;19.26;49.58
73105;BME280;61296;50.526;30.792;2023-09-12T20:28:34;99702.00;;;18.14;51.64
73105;BME280;61296;50.526;30.792;2023-09-12T20:43:54;99760.94;;;18.09;52.78
73105;BME280;61296;50.526;30.792;2023-09-12T20:59:14;99758.38;;;17.95;53.80
73105;BME280;61296;50.526;30.792;2023-09-12T21:14:33;99771.63;;;18.11;53.59
73105;BME280;61296;50.526;30.792;2023-09-12T21:29:54;99714.59;;;17.72;53.91
73105;BME280;61296;50.526;30.792;2023-09-12T21:45:13;99755.94;;;17.67;54.87
73105;BME280;61296;50.526;30.792;2023-09-12T22:00:33;99751.03;;;17.13;57.06
73105;BME280;61296;50.526;30.792;2023-09-12T22:15:53;99748.91;;;16.90;58.09
73105;BME280;61296;50.526;30.792;2023-09-12T22:31:13;99770.47;;;16.76;59.46
73105;BME280;61296;50.526;30.792;2023-09-12T22:46:32;99694.13;;;16.08;60.10
73105;BME280;61296;50.526;30.792;2023-09-12T23:01:51;99749.41;;;16.37;60.71
73105;BME280;61296;50.526;30.792;2023-09-12T23:17:10;99745.44;;;16.34;61.26
73105;BME280;61296;50.526;30.792;2023-09-12T23:32:29;99747.88;;;16.25;61.79
73105;BME280;61296;50.526;30.792;2023-09-12T23:47:48;99721.81;;;15.42;64.46
